createdAt,value
2022-11-05T00:04:31.636Z,56.20
2022-11-05T00:14:36.584Z,55.99
2022-11-05T00:24:41.806Z,56.04
2022-11-05T00:34:47.071Z,55.70
2022-11-05T00:44:52.304Z,55.73
2022-11-05T00:54:57.592Z,55.77
2022-11-05T01:05:03.094Z,55.56
2022-11-05T01:15:08.579Z,55.81
2022-11-05T01:25:13.797Z,54.85
2022-11-05T01:35:19.068Z,54.57
2022-11-05T01:45:23.886Z,54.40
2022-11-05T01:55:29.227Z,54.52
2022-11-05T02:05:34.458Z,54.47
2022-11-05T02:15:39.692Z,54.48
2022-11-05T02:25:45.151Z,54.55
2022-11-05T02:35:50.158Z,54.55
2022-11-05T02:45:55.539Z,54.50
2022-11-05T02:56:00.900Z,54.51
2022-11-05T03:06:06.058Z,54.48
2022-11-05T03:16:11.506Z,54.45
2022-11-05T03:26:16.605Z,54.39
2022-11-05T03:36:21.931Z,54.31
2022-11-05T03:46:27.529Z,54.28
2022-11-05T03:56:32.830Z,54.36
2022-11-05T04:06:37.880Z,54.42
2022-11-05T04:16:43.314Z,54.50
2022-11-05T04:26:48.673Z,54.42
2022-11-05T04:36:53.777Z,54.33
2022-11-05T04:46:59.084Z,54.34
2022-11-05T04:57:04.292Z,54.38
2022-11-05T05:07:09.611Z,54.32
2022-11-05T05:17:14.725Z,54.75
2022-11-05T05:27:20.274Z,54.80
2022-11-05T05:37:25.590Z,54.69
2022-11-05T05:47:31.047Z,54.54
2022-11-05T05:57:36.327Z,54.45
2022-11-05T06:07:41.459Z,54.51
2022-11-05T06:17:46.552Z,54.72
2022-11-05T06:27:51.849Z,55.02
2022-11-05T06:37:56.907Z,55.00
2022-11-05T06:48:02.600Z,54.79
2022-11-05T06:58:07.927Z,54.70
2022-11-05T07:08:13.255Z,54.82
2022-11-05T07:18:18.254Z,54.65
2022-11-05T07:28:23.509Z,54.60
2022-11-05T07:38:28.686Z,54.58
2022-11-05T07:48:34.188Z,55.01
2022-11-05T07:58:39.285Z,54.97
2022-11-05T08:08:45.463Z,55.03
2022-11-05T08:18:50.977Z,54.80
2022-11-05T08:28:56.186Z,54.94
2022-11-05T08:39:01.374Z,54.96
2022-11-05T08:49:06.578Z,55.10
2022-11-05T08:59:11.694Z,55.29
2022-11-05T09:09:17.030Z,54.65
2022-11-05T09:19:22.207Z,54.67
2022-11-05T09:29:27.795Z,54.36
2022-11-05T09:39:33.228Z,54.32
2022-11-05T09:49:38.721Z,54.55
2022-11-05T09:59:44.014Z,53.69
2022-11-05T10:09:49.618Z,54.24
2022-11-05T10:19:54.863Z,54.03
2022-11-05T10:30:00.359Z,53.61
2022-11-05T10:40:06.055Z,54.06
2022-11-05T10:50:11.381Z,53.53
2022-11-05T11:00:17.340Z,53.56
2022-11-05T11:10:23.072Z,54.02
2022-11-05T11:20:28.443Z,53.81
2022-11-05T11:30:33.818Z,51.86
2022-11-05T11:40:39.269Z,52.49
2022-11-05T11:50:44.442Z,53.30
2022-11-05T12:00:50.107Z,54.64
2022-11-05T12:10:55.377Z,54.89
2022-11-05T12:21:00.778Z,56.52
2022-11-05T12:31:06.603Z,56.96
2022-11-05T12:41:11.486Z,57.38
2022-11-05T12:51:17.053Z,57.86
2022-11-05T13:01:22.746Z,57.88
2022-11-05T13:11:28.292Z,57.34
2022-11-05T13:21:33.188Z,56.96
2022-11-05T13:31:38.527Z,57.85
2022-11-05T13:41:44.016Z,56.84
2022-11-05T13:51:49.291Z,56.68
2022-11-05T14:01:54.768Z,56.72
2022-11-05T14:12:00.284Z,57.04
2022-11-05T14:22:05.372Z,56.17
2022-11-05T14:32:10.422Z,56.11
2022-11-05T14:42:15.280Z,56.28
2022-11-05T14:52:20.290Z,56.18
2022-11-05T15:02:25.688Z,55.86
2022-11-05T15:12:30.977Z,55.98
2022-11-05T15:22:36.452Z,56.62
2022-11-05T15:32:41.717Z,57.47
2022-11-05T15:42:46.970Z,56.77
2022-11-05T15:52:52.437Z,56.80
2022-11-05T16:02:57.935Z,57.41
2022-11-05T16:13:03.073Z,56.25
2022-11-05T16:23:08.224Z,56.28
2022-11-05T16:33:13.561Z,56.24
2022-11-05T16:43:18.651Z,56.13
2022-11-05T16:53:23.870Z,56.19
2022-11-05T17:03:28.576Z,56.28
2022-11-05T17:13:33.378Z,56.20
2022-11-05T17:23:38.625Z,56.16
2022-11-05T17:33:43.557Z,56.08
2022-11-05T17:43:48.550Z,55.99
2022-11-05T17:53:53.668Z,56.15
2022-11-05T18:04:02.442Z,56.20
2022-11-05T18:14:08.953Z,56.10
2022-11-05T18:24:13.766Z,55.99
2022-11-05T18:34:19.194Z,56.47
2022-11-05T18:44:24.372Z,56.64
2022-11-05T18:54:29.617Z,56.49
2022-11-05T19:04:34.863Z,55.97
2022-11-05T19:14:40.236Z,55.96
2022-11-05T19:24:45.414Z,56.14
2022-11-05T19:34:50.749Z,56.41
2022-11-05T19:44:55.951Z,56.21
2022-11-05T19:55:01.261Z,55.86
2022-11-05T20:05:06.273Z,56.82
2022-11-05T20:15:11.486Z,55.62
2022-11-05T20:25:16.742Z,55.52
2022-11-05T20:35:21.782Z,55.54
2022-11-05T20:45:27.147Z,54.67
2022-11-05T20:55:32.633Z,54.65
2022-11-05T21:05:37.826Z,55.11
2022-11-05T21:15:43.112Z,55.23
2022-11-05T21:25:48.491Z,55.49
2022-11-05T21:35:53.202Z,55.67
2022-11-05T21:45:58.401Z,55.80
2022-11-05T21:56:03.372Z,55.51
2022-11-05T22:06:08.722Z,55.67
2022-11-05T22:16:13.919Z,55.59
2022-11-05T22:26:19.353Z,55.50
2022-11-05T22:36:24.394Z,55.51
2022-11-05T22:46:29.812Z,55.42
2022-11-05T22:56:35.034Z,55.47
2022-11-05T23:06:40.405Z,55.35
2022-11-05T23:16:45.465Z,55.20
2022-11-05T23:26:50.679Z,55.18
2022-11-05T23:36:55.663Z,55.29
2022-11-05T23:47:01.043Z,55.15
2022-11-05T23:57:06.781Z,55.27
